Back to Top

Language: 

My Weather Underground Personal Weather Station Historical Data with Graphs...

Delerius Weather Station Historical Data
Daily Summary for July 18, 2017 Units:  English    Metric   Both
« Previous Day
Next Day »
Daily Weekly Monthly Yearly Custom
  High: Low: Average:
Temperature: 76.8 °F 52.2 °F 64.8 °F
Dew Point: 58.6 °F 49.6 °F 54.2 °F
Humidity: 92 % 44 % 71 %
Wind Speed: 11.0 mph 0.0 mph 4.1 mph
Wind Gust: 23.0 mph - -
Wind:- - ESE
Pressure: 30.17 in 29.93 in -
Precipitation: 0.00 in    
Historical Graphs
 
 
Tabular Data for July 18, 2017
Time Temperature Dew Point Pressure Wind Wind Speed Wind Gust Humidity Rainfall Rate (Hourly) solar Conditions
00:00 59.5 °F 50.9 °F 30.17 in Calm   2.0 mph 73 % 0.00 in 0 W/m2
00:05 59.4 °F 51.1 °F 30.17 in Calm   2.0 mph 74 % 0.00 in 0 W/m2
00:10 59.2 °F 51.3 °F 30.17 in Calm     75 % 0.00 in 0 W/m2
00:15 59.0 °F 51.1 °F 30.17 in Calm   1.0 mph 75 % 0.00 in 0 W/m2
00:20 59.0 °F 51.1 °F 30.17 in Calm   1.0 mph 75 % 0.00 in 0 W/m2
00:25 58.6 °F 51.1 °F 30.17 in Calm   2.0 mph 76 % 0.00 in 0 W/m2
00:30 58.5 °F 50.9 °F 30.17 in Calm   2.0 mph 76 % 0.00 in 0 W/m2
00:35 58.3 °F 51.1 °F 30.17 in Calm     77 % 0.00 in 0 W/m2
00:40 57.9 °F 50.8 °F 30.17 in Calm   2.0 mph 77 % 0.00 in 0 W/m2
00:45 57.7 °F 50.9 °F 30.17 in Calm   2.0 mph 78 % 0.00 in 0 W/m2
00:50 57.6 °F 50.8 °F 30.17 in Calm   3.0 mph 78 % 0.00 in 0 W/m2
00:55 57.4 °F 50.9 °F 30.17 in WNW 1.0 mph 3.0 mph 79 % 0.00 in 0 W/m2
01:00 57.2 °F 50.7 °F 30.17 in WNW 1.0 mph 3.0 mph 79 % 0.00 in 0 W/m2
01:05 57.0 °F 50.6 °F 30.17 in Calm   2.0 mph 79 % 0.00 in 0 W/m2
01:10 56.8 °F 50.7 °F 30.17 in Calm     80 % 0.00 in 0 W/m2
01:15 56.8 °F 51.1 °F 30.17 in Calm   1.0 mph 81 % 0.00 in 0 W/m2
01:20 56.7 °F 50.9 °F 30.17 in Calm   1.0 mph 81 % 0.00 in 0 W/m2
01:25 56.7 °F 50.9 °F 30.17 in Calm     81 % 0.00 in 0 W/m2
01:30 56.5 °F 50.7 °F 30.17 in Calm     81 % 0.00 in 0 W/m2
01:35 56.5 °F 51.1 °F 30.17 in Calm   2.0 mph 82 % 0.00 in 0 W/m2
01:36 56.5 °F 51.1 °F 30.17 in Calm   2.0 mph 82 % 0.00 in 0 W/m2
01:41 56.1 °F 50.7 °F 30.16 in Calm   2.0 mph 82 % 0.00 in 0 W/m2
01:46 55.9 °F 50.5 °F 30.16 in Calm     82 % 0.00 in 0 W/m2
01:51 55.9 °F 50.9 °F 30.16 in Calm     83 % 0.00 in 0 W/m2
01:56 55.8 °F 50.7 °F 30.16 in Calm     83 % 0.00 in 0 W/m2
02:01 55.8 °F 51.0 °F 30.16 in Calm     84 % 0.00 in 0 W/m2
02:06 55.8 °F 51.0 °F 30.16 in Calm     84 % 0.00 in 0 W/m2
02:11 55.6 °F 50.8 °F 30.16 in Calm     84 % 0.00 in 0 W/m2
02:16 55.4 °F 50.6 °F 30.16 in Calm     84 % 0.00 in 0 W/m2
02:21 55.2 °F 50.5 °F 30.16 in Calm     84 % 0.00 in 0 W/m2
02:26 55.2 °F 50.8 °F 30.16 in Calm     85 % 0.00 in 0 W/m2
02:31 55.0 °F 50.6 °F 30.16 in Calm     85 % 0.00 in 0 W/m2
02:36 54.9 °F 50.4 °F 30.16 in Calm     85 % 0.00 in 0 W/m2
02:41 54.7 °F 50.3 °F 30.16 in Calm     85 % 0.00 in 0 W/m2
02:46 54.7 °F 50.3 °F 30.16 in Calm     85 % 0.00 in 0 W/m2
02:51 54.3 °F 50.2 °F 30.16 in Calm     86 % 0.00 in 0 W/m2
02:56 54.3 °F 50.2 °F 30.15 in Calm     86 % 0.00 in 0 W/m2
03:01 54.1 °F 50.0 °F 30.15 in Calm     86 % 0.00 in 0 W/m2
03:06 54.1 °F 50.4 °F 30.15 in Calm     87 % 0.00 in 0 W/m2
03:11 54.1 °F 50.4 °F 30.15 in Calm     87 % 0.00 in 0 W/m2
03:16 54.0 °F 50.2 °F 30.15 in Calm     87 % 0.00 in 0 W/m2
03:21 54.0 °F 50.5 °F 30.15 in Calm   2.0 mph 88 % 0.00 in 0 W/m2
03:26 53.8 °F 50.3 °F 30.15 in Calm   2.0 mph 88 % 0.00 in 0 W/m2
03:31 53.8 °F 50.3 °F 30.15 in Calm   2.0 mph 88 % 0.00 in 0 W/m2
03:32 53.8 °F 50.3 °F 30.15 in Calm   2.0 mph 88 % 0.00 in 0 W/m2
03:37 53.6 °F 50.1 °F 30.15 in Calm     88 % 0.00 in 0 W/m2
03:42 53.6 °F 50.4 °F 30.15 in Calm     89 % 0.00 in 0 W/m2
03:47 53.6 °F 50.4 °F 30.14 in Calm     89 % 0.00 in 0 W/m2
03:52 53.4 °F 50.0 °F 30.14 in Calm     88 % 0.00 in 0 W/m2
03:57 53.2 °F 50.1 °F 30.14 in Calm     89 % 0.00 in 0 W/m2
04:02 53.2 °F 50.1 °F 30.15 in Calm   2.0 mph 89 % 0.00 in 0 W/m2
04:07 53.2 °F 50.4 °F 30.14 in WNW 1.0 mph 4.0 mph 90 % 0.00 in 0 W/m2
04:12 53.2 °F 50.7 °F 30.14 in Calm   4.0 mph 91 % 0.00 in 0 W/m2
04:17 53.2 °F 50.4 °F 30.14 in Calm   1.0 mph 90 % 0.00 in 0 W/m2
04:22 53.2 °F 50.4 °F 30.14 in Calm     90 % 0.00 in 0 W/m2
04:27 53.1 °F 50.5 °F 30.14 in Calm     91 % 0.00 in 0 W/m2
04:32 53.1 °F 50.2 °F 30.14 in Calm     90 % 0.00 in 0 W/m2
04:37 52.9 °F 50.0 °F 30.14 in Calm     90 % 0.00 in 0 W/m2
04:42 52.9 °F 50.3 °F 30.15 in Calm     91 % 0.00 in 0 W/m2
04:47 52.5 °F 50.0 °F 30.15 in Calm     91 % 0.00 in 0 W/m2
04:52 52.5 °F 50.0 °F 30.14 in Calm     91 % 0.00 in 5 W/m2
04:57 52.5 °F 50.0 °F 30.14 in Calm     91 % 0.00 in 7 W/m2
05:03 52.3 °F 49.8 °F 30.14 in Calm     91 % 0.00 in 9 W/m2
05:08 52.3 °F 49.8 °F 30.14 in Calm     91 % 0.00 in 9 W/m2
05:13 52.2 °F 49.6 °F 30.14 in Calm     91 % 0.00 in 12 W/m2
05:18 52.2 °F 49.9 °F 30.14 in Calm     92 % 0.00 in 14 W/m2
05:23 52.3 °F 49.8 °F 30.14 in Calm     91 % 0.00 in 18 W/m2
05:28 52.2 °F 49.6 °F 30.14 in Calm     91 % 0.00 in 23 W/m2
05:33 52.2 °F 49.6 °F 30.14 in Calm     91 % 0.00 in 26 W/m2
05:38 52.2 °F 49.6 °F 30.14 in Calm     91 % 0.00 in 30 W/m2
05:43 52.2 °F 49.9 °F 30.14 in Calm     92 % 0.00 in 33 W/m2
05:48 52.2 °F 49.9 °F 30.14 in Calm     92 % 0.00 in 32 W/m2
05:53 52.2 °F 49.9 °F 30.14 in Calm     92 % 0.00 in 33 W/m2
05:58 52.3 °F 50.1 °F 30.14 in Calm     92 % 0.00 in 35 W/m2
06:03 52.3 °F 50.1 °F 30.14 in Calm     92 % 0.00 in 39 W/m2
06:08 52.5 °F 50.3 °F 30.14 in Calm     92 % 0.00 in 42 W/m2
06:13 52.5 °F 50.3 °F 30.14 in Calm     92 % 0.00 in 44 W/m2
06:18 52.7 °F 50.4 °F 30.14 in Calm     92 % 0.00 in 46 W/m2
06:23 52.9 °F 50.6 °F 30.14 in Calm     92 % 0.00 in 56 W/m2
06:28 53.1 °F 50.8 °F 30.14 in Calm     92 % 0.00 in 58 W/m2
06:33 53.2 °F 51.0 °F 30.14 in Calm     92 % 0.00 in 67 W/m2
06:38 53.2 °F 51.0 °F 30.14 in Calm     92 % 0.00 in 77 W/m2
06:43 53.6 °F 51.3 °F 30.14 in Calm     92 % 0.00 in 74 W/m2
06:48 54.0 °F 51.7 °F 30.14 in Calm     92 % 0.00 in 81 W/m2
06:53 54.1 °F 51.9 °F 30.14 in Calm     92 % 0.00 in 93 W/m2
06:58 54.5 °F 52.2 °F 30.14 in Calm     92 % 0.00 in 118 W/m2
07:03 54.9 °F 52.6 °F 30.14 in Calm     92 % 0.00 in 102 W/m2
07:08 55.2 °F 52.9 °F 30.14 in Calm     92 % 0.00 in 93 W/m2
07:13 55.8 °F 53.5 °F 30.14 in Calm     92 % 0.00 in 118 W/m2
07:18 56.1 °F 53.5 °F 30.14 in Calm   1.0 mph 91 % 0.00 in 100 W/m2
07:23 56.5 °F 53.9 °F 30.14 in Calm   1.0 mph 91 % 0.00 in 239 W/m2
07:28 57.0 °F 54.4 °F 30.14 in Calm   2.0 mph 91 % 0.00 in 250 W/m2
07:33 57.6 °F 54.6 °F 30.14 in Calm   2.0 mph 90 % 0.00 in 265 W/m2
07:38 58.3 °F 55.4 °F 30.14 in WNW 1.0 mph 4.0 mph 90 % 0.00 in 285 W/m2
07:43 58.6 °F 55.1 °F 30.14 in West 1.0 mph 4.0 mph 88 % 0.00 in 297 W/m2
07:48 59.2 °F 55.3 °F 30.14 in SW 1.0 mph 4.0 mph 87 % 0.00 in 251 W/m2
07:53 59.5 °F 55.3 °F 30.14 in SW 1.0 mph 5.0 mph 86 % 0.00 in 262 W/m2
07:59 60.1 °F 55.6 °F 30.14 in SSW 1.0 mph 5.0 mph 85 % 0.00 in 327 W/m2
08:04 60.8 °F 55.6 °F 30.13 in ESE 1.0 mph 5.0 mph 83 % 0.00 in 338 W/m2
08:08 61.3 °F 55.8 °F 30.13 in ENE 1.0 mph 5.0 mph 82 % 0.00 in 315 W/m2
08:13 62.2 °F 56.3 °F 30.13 in ENE 1.0 mph 4.0 mph 81 % 0.00 in 399 W/m2
08:19 63.0 °F 56.3 °F 30.13 in ENE 1.0 mph 4.0 mph 79 % 0.00 in 403 W/m2
08:24 63.3 °F 56.3 °F 30.13 in ENE 1.0 mph 6.0 mph 78 % 0.00 in 383 W/m2
08:29 63.5 °F 56.5 °F 30.13 in ENE 1.0 mph 6.0 mph 78 % 0.00 in 424 W/m2
08:34 63.9 °F 56.5 °F 30.13 in ENE 2.0 mph 7.0 mph 77 % 0.00 in 383 W/m2
08:39 64.2 °F 56.9 °F 30.13 in ENE 2.0 mph 7.0 mph 77 % 0.00 in 396 W/m2
08:44 64.6 °F 56.8 °F 30.13 in ENE 1.0 mph 5.0 mph 76 % 0.00 in 429 W/m2
08:49 64.8 °F 57.0 °F 30.13 in NE 2.0 mph 6.0 mph 76 % 0.00 in 417 W/m2
08:54 64.8 °F 57.0 °F 30.13 in NE 3.0 mph 7.0 mph 76 % 0.00 in 448 W/m2
08:59 64.8 °F 57.4 °F 30.13 in NE 3.0 mph 7.0 mph 77 % 0.00 in 434 W/m2
09:04 64.6 °F 57.2 °F 30.13 in ENE 3.0 mph 7.0 mph 77 % 0.00 in 478 W/m2
09:09 64.4 °F 57.0 °F 30.13 in NE 4.0 mph 8.0 mph 77 % 0.00 in 448 W/m2
09:14 64.2 °F 57.2 °F 30.13 in NE 4.0 mph 9.0 mph 78 % 0.00 in 489 W/m2
09:19 64.2 °F 57.2 °F 30.12 in NE 4.0 mph 9.0 mph 78 % 0.00 in 506 W/m2
09:24 64.2 °F 57.6 °F 30.12 in NE 3.0 mph 7.0 mph 79 % 0.00 in 545 W/m2
09:29 64.6 °F 57.9 °F 30.12 in NE 3.0 mph 7.0 mph 79 % 0.00 in 550 W/m2
09:34 64.8 °F 57.4 °F 30.12 in NE 4.0 mph 7.0 mph 77 % 0.00 in 527 W/m2
09:39 64.8 °F 57.7 °F 30.12 in NE 3.0 mph 7.0 mph 78 % 0.00 in 545 W/m2
09:44 64.8 °F 57.7 °F 30.12 in ENE 3.0 mph 8.0 mph 78 % 0.00 in 538 W/m2
09:49 64.8 °F 57.7 °F 30.12 in NE 3.0 mph 8.0 mph 78 % 0.00 in 578 W/m2
09:54 65.1 °F 58.1 °F 30.12 in NNE 2.0 mph 8.0 mph 78 % 0.00 in 561 W/m2
09:59 65.3 °F 57.9 °F 30.12 in NE 2.0 mph 8.0 mph 77 % 0.00 in 612 W/m2
10:04 66.0 °F 58.2 °F 30.12 in ENE 1.0 mph 7.0 mph 76 % 0.00 in 582 W/m2
10:09 66.7 °F 58.6 °F 30.12 in East 1.0 mph 5.0 mph 75 % 0.00 in 619 W/m2
10:14 67.1 °F 58.5 °F 30.12 in ESE 3.0 mph 7.0 mph 74 % 0.00 in 645 W/m2
10:19 67.3 °F 58.3 °F 30.11 in ESE 2.0 mph 7.0 mph 73 % 0.00 in 661 W/m2
10:21 67.5 °F 58.5 °F 30.11 in East 2.0 mph 7.0 mph 73 % 0.00 in 664 W/m2
10:26 67.8 °F 58.5 °F 30.11 in East 3.0 mph 8.0 mph 72 % 0.00 in 670 W/m2
10:31 68.4 °F 58.6 °F 30.11 in East 2.0 mph 8.0 mph 71 % 0.00 in 663 W/m2
10:36 68.5 °F 58.0 °F 30.11 in East 3.0 mph 6.0 mph 69 % 0.00 in 666 W/m2
10:41 69.1 °F 58.5 °F 30.11 in East 3.0 mph 8.0 mph 69 % 0.00 in 701 W/m2
10:46 69.3 °F 58.2 °F 30.11 in East 4.0 mph 8.0 mph 68 % 0.00 in 682 W/m2
10:51 70.0 °F 58.1 °F 30.10 in ESE 4.0 mph 9.0 mph 66 % 0.00 in 647 W/m2
10:56 70.2 °F 57.8 °F 30.10 in ESE 5.0 mph 10.0 mph 65 % 0.00 in 638 W/m2
11:01 70.3 °F 58.0 °F 30.10 in ESE 4.0 mph 10.0 mph 65 % 0.00 in 694 W/m2
11:06 70.9 °F 58.1 °F 30.10 in ESE 4.0 mph 10.0 mph 64 % 0.00 in 759 W/m2
11:11 71.1 °F 57.4 °F 30.10 in ESE 5.0 mph 10.0 mph 62 % 0.00 in 779 W/m2
11:16 71.2 °F 58.0 °F 30.09 in ESE 5.0 mph 9.0 mph 63 % 0.00 in 615 W/m2
11:21 71.6 °F 57.9 °F 30.09 in ESE 4.0 mph 9.0 mph 62 % 0.00 in 642 W/m2
11:26 72.0 °F 57.3 °F 30.09 in ESE 5.0 mph 9.0 mph 60 % 0.00 in 682 W/m2
11:31 72.3 °F 57.2 °F 30.09 in East 5.0 mph 11.0 mph 59 % 0.00 in 640 W/m2
11:36 72.5 °F 56.9 °F 30.09 in ESE 6.0 mph 11.0 mph 58 % 0.00 in 606 W/m2
11:41 72.5 °F 56.9 °F 30.09 in ESE 5.0 mph 11.0 mph 58 % 0.00 in 621 W/m2
11:46 72.7 °F 56.6 °F 30.08 in ESE 5.0 mph 12.0 mph 57 % 0.00 in 606 W/m2
11:51 73.0 °F 57.4 °F 30.08 in ESE 6.0 mph 12.0 mph 58 % 0.00 in 635 W/m2
11:56 73.2 °F 56.6 °F 30.08 in ESE 7.0 mph 15.0 mph 56 % 0.00 in 621 W/m2
12:01 73.2 °F 56.6 °F 30.08 in SE 8.0 mph 15.0 mph 56 % 0.00 in 642 W/m2
12:06 73.8 °F 57.1 °F 30.08 in ESE 8.0 mph 14.0 mph 56 % 0.00 in 761 W/m2
12:11 73.9 °F 57.3 °F 30.07 in ESE 8.0 mph 15.0 mph 56 % 0.00 in 749 W/m2
12:16 74.5 °F 57.3 °F 30.07 in ESE 8.0 mph 15.0 mph 55 % 0.00 in 708 W/m2
12:21 74.1 °F 56.9 °F 30.07 in East 7.0 mph 13.0 mph 55 % 0.00 in 726 W/m2
12:26 74.5 °F 57.3 °F 30.07 in East 7.0 mph 15.0 mph 55 % 0.00 in 768 W/m2
12:31 74.8 °F 56.0 °F 30.07 in ESE 8.0 mph 15.0 mph 52 % 0.00 in 884 W/m2
12:36 74.8 °F 54.4 °F 30.07 in ESE 9.0 mph 15.0 mph 49 % 0.00 in 777 W/m2
12:41 74.8 °F 54.4 °F 30.06 in ESE 9.0 mph 15.0 mph 49 % 0.00 in 594 W/m2
12:46 74.8 °F 54.4 °F 30.06 in ESE 9.0 mph 15.0 mph 49 % 0.00 in 555 W/m2
12:51 74.8 °F 54.4 °F 30.06 in ESE 8.0 mph 15.0 mph 49 % 0.00 in 554 W/m2
12:56 74.8 °F 53.8 °F 30.06 in SE 9.0 mph 16.0 mph 48 % 0.00 in 540 W/m2
13:01 75.0 °F 54.6 °F 30.06 in SE 8.0 mph 16.0 mph 49 % 0.00 in 865 W/m2
13:06 75.4 °F 54.9 °F 30.05 in ESE 8.0 mph 15.0 mph 49 % 0.00 in 582 W/m2
13:08 75.4 °F 55.4 °F 30.05 in ESE 8.0 mph 15.0 mph 50 % 0.00 in 548 W/m2
13:13 75.4 °F 56.0 °F 30.05 in ESE 9.0 mph 15.0 mph 51 % 0.00 in 506 W/m2
13:18 75.2 °F 55.3 °F 30.05 in ESE 8.0 mph 13.0 mph 50 % 0.00 in 582 W/m2
13:23 75.4 °F 56.0 °F 30.05 in ESE 8.0 mph 12.0 mph 51 % 0.00 in 689 W/m2
13:28 75.7 °F 55.8 °F 30.04 in ESE 8.0 mph 15.0 mph 50 % 0.00 in 689 W/m2
13:33 76.1 °F 56.1 °F 30.04 in ESE 8.0 mph 16.0 mph 50 % 0.00 in 693 W/m2
13:38 76.5 °F 55.9 °F 30.04 in ESE 9.0 mph 19.0 mph 49 % 0.00 in 1039 W/m2
13:43 76.8 °F 55.1 °F 30.04 in ESE 11.0 mph 23.0 mph 47 % 0.00 in 1048 W/m2
13:48 76.6 °F 54.9 °F 30.04 in ESE 11.0 mph 23.0 mph 47 % 0.00 in 974 W/m2
13:53 76.6 °F 54.9 °F 30.04 in ESE 10.0 mph 18.0 mph 47 % 0.00 in 932 W/m2
13:55 76.8 °F 54.5 °F 30.04 in ESE 10.0 mph 18.0 mph 46 % 0.00 in 904 W/m2
14:00 76.6 °F 54.3 °F 30.03 in ESE 10.0 mph 18.0 mph 46 % 0.00 in 888 W/m2
14:05 76.6 °F 53.7 °F 30.04 in ESE 10.0 mph 16.0 mph 45 % 0.00 in 884 W/m2
14:11 76.6 °F 53.7 °F 30.03 in ESE 10.0 mph 18.0 mph 45 % 0.00 in 886 W/m2
14:16 76.6 °F 54.9 °F 30.03 in ESE 10.0 mph 18.0 mph 47 % 0.00 in 879 W/m2
14:21 76.8 °F 54.5 °F 30.03 in ESE 9.0 mph 15.0 mph 46 % 0.00 in 865 W/m2
14:26 76.6 °F 54.3 °F 30.03 in ESE 9.0 mph 21.0 mph 46 % 0.00 in 863 W/m2
14:31 76.8 °F 54.5 °F 30.03 in ESE 9.0 mph 21.0 mph 46 % 0.00 in 872 W/m2
14:36 76.6 °F 53.7 °F 30.02 in ESE 9.0 mph 16.0 mph 45 % 0.00 in 872 W/m2
14:41 76.1 °F 54.4 °F 30.02 in ESE 10.0 mph 16.0 mph 47 % 0.00 in 844 W/m2
14:46 76.5 °F 54.7 °F 30.02 in ESE 10.0 mph 16.0 mph 47 % 0.00 in 775 W/m2
14:51 76.5 °F 54.7 °F 30.02 in ESE 8.0 mph 16.0 mph 47 % 0.00 in 809 W/m2
14:56 76.5 °F 54.1 °F 30.02 in ESE 9.0 mph 19.0 mph 46 % 0.00 in 803 W/m2
15:01 76.5 °F 54.7 °F 30.02 in ESE 9.0 mph 19.0 mph 47 % 0.00 in 754 W/m2
15:06 76.6 °F 53.7 °F 30.02 in ESE 9.0 mph 20.0 mph 45 % 0.00 in 851 W/m2
15:11 76.5 °F 53.5 °F 30.02 in ESE 10.0 mph 20.0 mph 45 % 0.00 in 849 W/m2
15:16 76.8 °F 53.3 °F 30.02 in ESE 10.0 mph 19.0 mph 44 % 0.00 in 824 W/m2
15:17 76.6 °F 53.1 °F 30.02 in ESE 9.0 mph 19.0 mph 44 % 0.00 in 745 W/m2
15:22 76.6 °F 53.7 °F 30.02 in East 9.0 mph 16.0 mph 45 % 0.00 in 802 W/m2
15:27 76.5 °F 54.1 °F 30.02 in East 9.0 mph 18.0 mph 46 % 0.00 in 779 W/m2
15:32 76.5 °F 53.5 °F 30.02 in ESE 9.0 mph 18.0 mph 45 % 0.00 in 765 W/m2
15:37 76.3 °F 54.0 °F 30.01 in ESE 9.0 mph 16.0 mph 46 % 0.00 in 726 W/m2
15:42 76.5 °F 54.1 °F 30.01 in ESE 9.0 mph 18.0 mph 46 % 0.00 in 744 W/m2
15:47 76.3 °F 53.4 °F 30.01 in ESE 9.0 mph 18.0 mph 45 % 0.00 in 740 W/m2
15:52 75.9 °F 53.6 °F 30.01 in East 9.0 mph 15.0 mph 46 % 0.00 in 721 W/m2
15:57 75.9 °F 54.2 °F 30.00 in East 8.0 mph 15.0 mph 47 % 0.00 in 698 W/m2
16:02 75.6 °F 53.9 °F 30.00 in East 8.0 mph 15.0 mph 47 % 0.00 in 722 W/m2
16:07 75.6 °F 53.9 °F 30.00 in East 9.0 mph 15.0 mph 47 % 0.00 in 661 W/m2
16:12 75.4 °F 54.9 °F 29.99 in East 9.0 mph 15.0 mph 49 % 0.00 in 696 W/m2
16:14 75.4 °F 54.9 °F 29.99 in East 10.0 mph 16.0 mph 49 % 0.00 in 664 W/m2
16:19 75.4 °F 54.9 °F 29.99 in East 9.0 mph 16.0 mph 49 % 0.00 in 689 W/m2
16:25 75.7 °F 54.7 °F 29.99 in East 8.0 mph 14.0 mph 48 % 0.00 in 631 W/m2
16:30 75.7 °F 54.7 °F 29.99 in East 8.0 mph 16.0 mph 48 % 0.00 in 628 W/m2
16:35 75.9 °F 54.2 °F 29.99 in East 8.0 mph 16.0 mph 47 % 0.00 in 657 W/m2
16:40 76.3 °F 55.1 °F 29.99 in East 7.0 mph 15.0 mph 48 % 0.00 in 677 W/m2
16:45 76.3 °F 55.1 °F 29.99 in East 7.0 mph 15.0 mph 48 % 0.00 in 642 W/m2
16:50 76.1 °F 54.4 °F 29.99 in East 8.0 mph 20.0 mph 47 % 0.00 in 573 W/m2
16:55 75.7 °F 54.7 °F 29.99 in ESE 9.0 mph 20.0 mph 48 % 0.00 in 587 W/m2
17:00 75.7 °F 54.7 °F 29.99 in ESE 9.0 mph 18.0 mph 48 % 0.00 in 608 W/m2
17:05 75.9 °F 55.9 °F 29.99 in ESE 8.0 mph 18.0 mph 50 % 0.00 in 589 W/m2
17:10 75.7 °F 54.1 °F 29.99 in ESE 8.0 mph 15.0 mph 47 % 0.00 in 243 W/m2
17:15 75.2 °F 54.2 °F 29.99 in ESE 9.0 mph 15.0 mph 48 % 0.00 in 274 W/m2
17:20 74.7 °F 54.8 °F 29.99 in ESE 10.0 mph 16.0 mph 50 % 0.00 in 274 W/m2
17:25 73.9 °F 54.7 °F 29.99 in ESE 11.0 mph 16.0 mph 51 % 0.00 in 255 W/m2
17:30 73.6 °F 55.4 °F 29.98 in ESE 9.0 mph 16.0 mph 53 % 0.00 in 230 W/m2
17:35 73.4 °F 55.7 °F 29.98 in ESE 8.0 mph 15.0 mph 54 % 0.00 in 218 W/m2
17:40 73.4 °F 55.2 °F 29.98 in ESE 7.0 mph 15.0 mph 53 % 0.00 in 204 W/m2
17:45 73.2 °F 55.1 °F 29.98 in East 7.0 mph 14.0 mph 53 % 0.00 in 199 W/m2
17:50 73.0 °F 55.4 °F 29.98 in East 7.0 mph 14.0 mph 54 % 0.00 in 190 W/m2
17:55 72.9 °F 55.7 °F 29.98 in East 7.0 mph 13.0 mph 55 % 0.00 in 188 W/m2
18:00 72.5 °F 55.4 °F 29.97 in East 8.0 mph 13.0 mph 55 % 0.00 in 174 W/m2
18:05 72.3 °F 55.7 °F 29.97 in East 7.0 mph 13.0 mph 56 % 0.00 in 174 W/m2
18:10 72.1 °F 55.6 °F 29.97 in East 8.0 mph 13.0 mph 56 % 0.00 in 178 W/m2
18:15 72.0 °F 55.4 °F 29.97 in ESE 8.0 mph 15.0 mph 56 % 0.00 in 176 W/m2
18:20 72.0 °F 55.4 °F 29.97 in ESE 8.0 mph 15.0 mph 56 % 0.00 in 186 W/m2
18:25 72.0 °F 55.4 °F 29.97 in East 7.0 mph 13.0 mph 56 % 0.00 in 188 W/m2
18:30 71.8 °F 55.2 °F 29.96 in ESE 8.0 mph 16.0 mph 56 % 0.00 in 158 W/m2
18:35 71.6 °F 55.1 °F 29.96 in ESE 9.0 mph 16.0 mph 56 % 0.00 in 162 W/m2
18:40 71.4 °F 55.4 °F 29.96 in ESE 7.0 mph 14.0 mph 57 % 0.00 in 163 W/m2
18:45 71.2 °F 55.2 °F 29.96 in East 7.0 mph 14.0 mph 57 % 0.00 in 183 W/m2
18:50 71.1 °F 55.1 °F 29.96 in East 7.0 mph 14.0 mph 57 % 0.00 in 135 W/m2
18:56 70.9 °F 55.4 °F 29.96 in East 7.0 mph 14.0 mph 58 % 0.00 in 125 W/m2
19:01 70.5 °F 55.5 °F 29.96 in East 7.0 mph 13.0 mph 59 % 0.00 in 123 W/m2
19:06 70.2 °F 55.2 °F 29.96 in East 7.0 mph 13.0 mph 59 % 0.00 in 118 W/m2
19:10 70.0 °F 55.5 °F 29.96 in East 8.0 mph 14.0 mph 60 % 0.00 in 116 W/m2
19:16 69.8 °F 55.7 °F 29.96 in East 7.0 mph 14.0 mph 61 % 0.00 in 153 W/m2
19:21 69.8 °F 56.2 °F 29.96 in East 6.0 mph 12.0 mph 62 % 0.00 in 116 W/m2
19:26 69.6 °F 56.5 °F 29.96 in East 6.0 mph 12.0 mph 63 % 0.00 in 128 W/m2
19:31 69.4 °F 56.3 °F 29.96 in East 7.0 mph 13.0 mph 63 % 0.00 in 132 W/m2
19:36 69.3 °F 56.6 °F 29.96 in East 7.0 mph 13.0 mph 64 % 0.00 in 134 W/m2
19:41 69.3 °F 56.6 °F 29.96 in East 7.0 mph 13.0 mph 64 % 0.00 in 123 W/m2
19:46 69.1 °F 56.8 °F 29.95 in East 7.0 mph 13.0 mph 65 % 0.00 in 114 W/m2
19:51 69.1 °F 56.8 °F 29.95 in East 6.0 mph 13.0 mph 65 % 0.00 in 100 W/m2
19:56 68.7 °F 56.9 °F 29.95 in East 6.0 mph 13.0 mph 66 % 0.00 in 86 W/m2
20:01 68.4 °F 56.6 °F 29.95 in East 6.0 mph 13.0 mph 66 % 0.00 in 77 W/m2
20:06 68.2 °F 56.8 °F 29.95 in East 7.0 mph 13.0 mph 67 % 0.00 in 70 W/m2
20:11 67.8 °F 56.5 °F 29.95 in East 7.0 mph 16.0 mph 67 % 0.00 in 65 W/m2
20:16 67.6 °F 56.7 °F 29.95 in East 7.0 mph 16.0 mph 68 % 0.00 in 58 W/m2
20:21 67.5 °F 56.9 °F 29.95 in East 7.0 mph 13.0 mph 69 % 0.00 in 54 W/m2
20:26 67.3 °F 56.8 °F 29.95 in East 7.0 mph 14.0 mph 69 % 0.00 in 47 W/m2
20:31 66.9 °F 56.4 °F 29.95 in East 7.0 mph 15.0 mph 69 % 0.00 in 42 W/m2
20:36 66.6 °F 56.5 °F 29.95 in East 8.0 mph 15.0 mph 70 % 0.00 in 37 W/m2
20:41 66.2 °F 56.1 °F 29.95 in East 8.0 mph 13.0 mph 70 % 0.00 in 32 W/m2
20:46 65.8 °F 56.2 °F 29.95 in East 7.0 mph 13.0 mph 71 % 0.00 in 28 W/m2
20:51 65.7 °F 56.0 °F 29.95 in East 7.0 mph 13.0 mph 71 % 0.00 in 25 W/m2
20:56 65.3 °F 55.7 °F 29.95 in East 7.0 mph 13.0 mph 71 % 0.00 in 19 W/m2
21:01 65.1 °F 55.9 °F 29.95 in East 6.0 mph 13.0 mph 72 % 0.00 in 16 W/m2
21:06 64.8 °F 55.5 °F 29.95 in East 6.0 mph 13.0 mph 72 % 0.00 in 12 W/m2
21:11 64.6 °F 55.7 °F 29.95 in East 6.0 mph 12.0 mph 73 % 0.00 in 9 W/m2
21:16 64.4 °F 55.9 °F 29.95 in East 5.0 mph 10.0 mph 74 % 0.00 in 5 W/m2
21:21 64.0 °F 55.6 °F 29.95 in East 6.0 mph 11.0 mph 74 % 0.00 in 0 W/m2
21:26 63.9 °F 55.8 °F 29.95 in East 7.0 mph 11.0 mph 75 % 0.00 in 0 W/m2
21:31 63.5 °F 55.4 °F 29.95 in East 6.0 mph 13.0 mph 75 % 0.00 in 0 W/m2
21:36 63.3 °F 55.6 °F 29.95 in East 6.0 mph 13.0 mph 76 % 0.00 in 0 W/m2
21:41 63.1 °F 55.4 °F 29.95 in East 5.0 mph 9.0 mph 76 % 0.00 in 0 W/m2
21:46 63.0 °F 55.3 °F 29.95 in East 4.0 mph 9.0 mph 76 % 0.00 in 0 W/m2
21:51 62.8 °F 55.1 °F 29.94 in East 4.0 mph 9.0 mph 76 % 0.00 in 0 W/m2
21:56 62.6 °F 54.9 °F 29.94 in East 4.0 mph 9.0 mph 76 % 0.00 in 0 W/m2
22:01 62.2 °F 54.9 °F 29.94 in East 5.0 mph 11.0 mph 77 % 0.00 in 0 W/m2
22:06 62.1 °F 54.8 °F 29.94 in ENE 4.0 mph 11.0 mph 77 % 0.00 in 0 W/m2
22:11 61.9 °F 54.9 °F 29.94 in ENE 5.0 mph 11.0 mph 78 % 0.00 in 0 W/m2
22:16 61.5 °F 54.9 °F 29.94 in ENE 5.0 mph 11.0 mph 79 % 0.00 in 0 W/m2
22:21 61.3 °F 54.8 °F 29.94 in East 5.0 mph 10.0 mph 79 % 0.00 in 0 W/m2
22:26 61.2 °F 54.9 °F 29.94 in East 4.0 mph 10.0 mph 80 % 0.00 in 0 W/m2
22:31 61.0 °F 54.8 °F 29.94 in East 4.0 mph 11.0 mph 80 % 0.00 in 0 W/m2
22:36 61.0 °F 55.1 °F 29.94 in East 5.0 mph 12.0 mph 81 % 0.00 in 0 W/m2
22:42 60.6 °F 54.8 °F 29.94 in East 5.0 mph 12.0 mph 81 % 0.00 in 0 W/m2
22:47 60.4 °F 54.6 °F 29.94 in East 5.0 mph 10.0 mph 81 % 0.00 in 0 W/m2
22:52 60.4 °F 54.9 °F 29.93 in East 5.0 mph 10.0 mph 82 % 0.00 in 0 W/m2
22:57 60.3 °F 54.7 °F 29.93 in East 4.0 mph 10.0 mph 82 % 0.00 in 0 W/m2
23:02 60.3 °F 55.1 °F 29.93 in East 3.0 mph 10.0 mph 83 % 0.00 in 0 W/m2
23:07 60.1 °F 54.9 °F 29.94 in East 2.0 mph 7.0 mph 83 % 0.00 in 0 W/m2
23:12 60.1 °F 55.2 °F 29.93 in East 2.0 mph 7.0 mph 84 % 0.00 in 0 W/m2
23:17 59.9 °F 55.1 °F 29.94 in East 2.0 mph 7.0 mph 84 % 0.00 in 0 W/m2
23:22 59.7 °F 54.9 °F 29.94 in East 4.0 mph 8.0 mph 84 % 0.00 in 0 W/m2
23:27 59.7 °F 55.2 °F 29.94 in East 3.0 mph 8.0 mph 85 % 0.00 in 0 W/m2
23:32 59.5 °F 55.0 °F 29.93 in ENE 2.0 mph 6.0 mph 85 % 0.00 in 0 W/m2
23:37 59.5 °F 55.3 °F 29.93 in East 2.0 mph 6.0 mph 86 % 0.00 in 0 W/m2
23:42 59.5 °F 55.3 °F 29.93 in East 2.0 mph 6.0 mph 86 % 0.00 in 0 W/m2
23:47 59.5 °F 55.3 °F 29.94 in East 1.0 mph 5.0 mph 86 % 0.00 in 0 W/m2
23:52 59.5 °F 55.3 °F 29.93 in ENE 1.0 mph 6.0 mph 86 % 0.00 in 0 W/m2
23:57 59.5 °F 55.7 °F 29.93 in ENE 1.0 mph 6.0 mph 87 % 0.00 in 0 W/m2
Delerius-Weather
Compliments of Weather Underground - 2.25 mb

Data updates at regular intervals.